sensor_id;sensor_type;location;lat;lon;timestamp;P1;durP1;ratioP1;P2;durP2;ratioP2
11008;SDS011;5557;51.670;7.788;2023-10-13T00:02:00;20.03;;;13.83;;
11008;SDS011;5557;51.670;7.788;2023-10-13T00:04:29;26.53;;;13.47;;
11008;SDS011;5557;51.670;7.788;2023-10-13T00:07:02;20.00;;;14.30;;
11008;SDS011;5557;51.670;7.788;2023-10-13T00:09:31;17.53;;;13.73;;
11008;SDS011;5557;51.670;7.788;2023-10-13T00:12:05;20.03;;;12.60;;
11008;SDS011;5557;51.670;7.788;2023-10-13T00:14:36;17.83;;;13.27;;
11008;SDS011;5557;51.670;7.788;2023-10-13T00:17:07;20.50;;;13.43;;
11008;SDS011;5557;51.670;7.788;2023-10-13T00:19:37;14.47;;;12.27;;
11008;SDS011;5557;51.670;7.788;2023-10-13T00:22:10;15.63;;;12.80;;
11008;SDS011;5557;51.670;7.788;2023-10-13T00:24:39;20.90;;;13.27;;
11008;SDS011;5557;51.670;7.788;2023-10-13T00:27:13;17.67;;;11.80;;
11008;SDS011;5557;51.670;7.788;2023-10-13T00:29:59;16.80;;;11.93;;
11008;SDS011;5557;51.670;7.788;2023-10-13T00:32:47;17.70;;;12.53;;
11008;SDS011;5557;51.670;7.788;2023-10-13T00:35:25;24.60;;;13.30;;
11008;SDS011;5557;51.670;7.788;2023-10-13T00:37:56;18.13;;;12.70;;
11008;SDS011;5557;51.670;7.788;2023-10-13T00:40:24;19.77;;;12.67;;
11008;SDS011;5557;51.670;7.788;2023-10-13T00:42:58;14.13;;;11.60;;
11008;SDS011;5557;51.670;7.788;2023-10-13T00:45:44;21.23;;;12.57;;
11008;SDS011;5557;51.670;7.788;2023-10-13T00:48:25;15.30;;;12.40;;
11008;SDS011;5557;51.670;7.788;2023-10-13T00:51:06;16.47;;;12.17;;
11008;SDS011;5557;51.670;7.788;2023-10-13T00:53:34;19.27;;;12.47;;
11008;SDS011;5557;51.670;7.788;2023-10-13T00:56:07;22.27;;;11.27;;
11008;SDS011;5557;51.670;7.788;2023-10-13T00:58:35;17.43;;;11.13;;
11008;SDS011;5557;51.670;7.788;2023-10-13T01:01:05;14.83;;;11.50;;
11008;SDS011;5557;51.670;7.788;2023-10-13T01:03:45;24.40;;;13.00;;
11008;SDS011;5557;51.670;7.788;2023-10-13T01:06:22;14.07;;;11.20;;
11008;SDS011;5557;51.670;7.788;2023-10-13T01:09:02;19.13;;;12.70;;
11008;SDS011;5557;51.670;7.788;2023-10-13T01:11:41;17.97;;;12.20;;
11008;SDS011;5557;51.670;7.788;2023-10-13T01:14:19;20.40;;;13.33;;
11008;SDS011;5557;51.670;7.788;2023-10-13T01:16:47;18.17;;;11.70;;
11008;SDS011;5557;51.670;7.788;2023-10-13T01:19:19;17.43;;;12.80;;
11008;SDS011;5557;51.670;7.788;2023-10-13T01:21:51;16.13;;;13.40;;
11008;SDS011;5557;51.670;7.788;2023-10-13T01:24:32;16.77;;;13.23;;
11008;SDS011;5557;51.670;7.788;2023-10-13T01:27:02;19.23;;;13.20;;
11008;SDS011;5557;51.670;7.788;2023-10-13T01:29:46;14.23;;;12.53;;
11008;SDS011;5557;51.670;7.788;2023-10-13T01:32:15;14.30;;;12.63;;
11008;SDS011;5557;51.670;7.788;2023-10-13T01:34:43;28.03;;;13.53;;
11008;SDS011;5557;51.670;7.788;2023-10-13T01:37:15;15.37;;;12.63;;
11008;SDS011;5557;51.670;7.788;2023-10-13T01:39:43;21.50;;;12.50;;
11008;SDS011;5557;51.670;7.788;2023-10-13T01:42:14;17.37;;;12.40;;
11008;SDS011;5557;51.670;7.788;2023-10-13T01:44:46;22.33;;;12.37;;
11008;SDS011;5557;51.670;7.788;2023-10-13T01:47:13;13.93;;;11.80;;
11008;SDS011;5557;51.670;7.788;2023-10-13T01:49:42;15.23;;;12.10;;
11008;SDS011;5557;51.670;7.788;2023-10-13T01:52:14;17.60;;;11.77;;
11008;SDS011;5557;51.670;7.788;2023-10-13T01:54:45;26.70;;;17.50;;
11008;SDS011;5557;51.670;7.788;2023-10-13T01:57:16;13.10;;;11.80;;
11008;SDS011;5557;51.670;7.788;2023-10-13T01:59:46;15.70;;;12.43;;
11008;SDS011;5557;51.670;7.788;2023-10-13T02:02:15;19.20;;;14.43;;
11008;SDS011;5557;51.670;7.788;2023-10-13T02:04:56;18.20;;;12.40;;
11008;SDS011;5557;51.670;7.788;2023-10-13T02:07:27;19.83;;;12.37;;
11008;SDS011;5557;51.670;7.788;2023-10-13T02:09:57;19.17;;;11.77;;
11008;SDS011;5557;51.670;7.788;2023-10-13T02:12:25;29.00;;;18.37;;
11008;SDS011;5557;51.670;7.788;2023-10-13T02:15:10;17.03;;;12.00;;
11008;SDS011;5557;51.670;7.788;2023-10-13T02:17:39;20.60;;;15.13;;
11008;SDS011;5557;51.670;7.788;2023-10-13T02:20:08;21.93;;;15.17;;
11008;SDS011;5557;51.670;7.788;2023-10-13T02:22:41;32.23;;;13.17;;
11008;SDS011;5557;51.670;7.788;2023-10-13T02:25:18;25.73;;;15.97;;
11008;SDS011;5557;51.670;7.788;2023-10-13T02:28:12;23.57;;;13.23;;
11008;SDS011;5557;51.670;7.788;2023-10-13T02:30:41;16.70;;;12.13;;
11008;SDS011;5557;51.670;7.788;2023-10-13T02:33:15;16.03;;;13.30;;
11008;SDS011;5557;51.670;7.788;2023-10-13T02:35:59;17.80;;;11.93;;
11008;SDS011;5557;51.670;7.788;2023-10-13T02:38:30;17.47;;;10.80;;
11008;SDS011;5557;51.670;7.788;2023-10-13T02:41:25;14.30;;;12.03;;
11008;SDS011;5557;51.670;7.788;2023-10-13T02:43:54;17.53;;;12.97;;
11008;SDS011;5557;51.670;7.788;2023-10-13T02:46:22;17.03;;;11.43;;
11008;SDS011;5557;51.670;7.788;2023-10-13T02:48:51;23.63;;;12.70;;
11008;SDS011;5557;51.670;7.788;2023-10-13T02:51:22;13.77;;;12.10;;
11008;SDS011;5557;51.670;7.788;2023-10-13T02:53:57;20.23;;;11.80;;
11008;SDS011;5557;51.670;7.788;2023-10-13T02:56:29;16.80;;;11.90;;
11008;SDS011;5557;51.670;7.788;2023-10-13T02:58:56;13.80;;;11.60;;
11008;SDS011;5557;51.670;7.788;2023-10-13T03:01:23;13.27;;;11.33;;
11008;SDS011;5557;51.670;7.788;2023-10-13T03:03:55;12.43;;;11.20;;
11008;SDS011;5557;51.670;7.788;2023-10-13T03:06:25;21.30;;;12.03;;
11008;SDS011;5557;51.670;7.788;2023-10-13T03:09:03;14.77;;;12.00;;
11008;SDS011;5557;51.670;7.788;2023-10-13T03:11:41;12.33;;;10.80;;
11008;SDS011;5557;51.670;7.788;2023-10-13T03:14:18;14.00;;;11.33;;
11008;SDS011;5557;51.670;7.788;2023-10-13T03:16:51;21.57;;;12.57;;
11008;SDS011;5557;51.670;7.788;2023-10-13T03:19:19;13.03;;;10.80;;
11008;SDS011;5557;51.670;7.788;2023-10-13T03:21:47;21.57;;;13.10;;
11008;SDS011;5557;51.670;7.788;2023-10-13T03:24:30;14.90;;;11.60;;
11008;SDS011;5557;51.670;7.788;2023-10-13T03:27:01;12.57;;;11.27;;
11008;SDS011;5557;51.670;7.788;2023-10-13T03:29:35;12.40;;;10.30;;
11008;SDS011;5557;51.670;7.788;2023-10-13T03:32:03;11.70;;;10.50;;
11008;SDS011;5557;51.670;7.788;2023-10-13T03:34:39;15.20;;;11.00;;
11008;SDS011;5557;51.670;7.788;2023-10-13T03:37:37;12.63;;;10.60;;
11008;SDS011;5557;51.670;7.788;2023-10-13T03:40:09;14.57;;;10.83;;
11008;SDS011;5557;51.670;7.788;2023-10-13T03:42:50;10.47;;;9.37;;
11008;SDS011;5557;51.670;7.788;2023-10-13T03:45:35;13.30;;;10.13;;
11008;SDS011;5557;51.670;7.788;2023-10-13T03:48:07;12.33;;;10.40;;
11008;SDS011;5557;51.670;7.788;2023-10-13T03:50:36;10.43;;;9.53;;
11008;SDS011;5557;51.670;7.788;2023-10-13T03:53:04;11.13;;;10.10;;
11008;SDS011;5557;51.670;7.788;2023-10-13T03:55:32;12.80;;;9.17;;
11008;SDS011;5557;51.670;7.788;2023-10-13T03:58:01;20.00;;;10.30;;
11008;SDS011;5557;51.670;7.788;2023-10-13T04:00:29;11.17;;;10.20;;
11008;SDS011;5557;51.670;7.788;2023-10-13T04:02:57;11.90;;;9.37;;
11008;SDS011;5557;51.670;7.788;2023-10-13T04:05:42;13.20;;;9.63;;
11008;SDS011;5557;51.670;7.788;2023-10-13T04:08:27;13.37;;;10.33;;
11008;SDS011;5557;51.670;7.788;2023-10-13T04:10:57;11.83;;;10.63;;
11008;SDS011;5557;51.670;7.788;2023-10-13T04:13:33;17.13;;;10.60;;
11008;SDS011;5557;51.670;7.788;2023-10-13T04:16:26;14.00;;;11.63;;
11008;SDS011;5557;51.670;7.788;2023-10-13T04:19:02;14.60;;;10.80;;
11008;SDS011;5557;51.670;7.788;2023-10-13T04:21:38;14.40;;;10.33;;
11008;SDS011;5557;51.670;7.788;2023-10-13T04:24:10;19.30;;;10.03;;
11008;SDS011;5557;51.670;7.788;2023-10-13T04:27:04;13.20;;;10.87;;
11008;SDS011;5557;51.670;7.788;2023-10-13T04:29:57;10.73;;;9.63;;
11008;SDS011;5557;51.670;7.788;2023-10-13T04:32:34;11.77;;;10.10;;
11008;SDS011;5557;51.670;7.788;2023-10-13T04:35:15;15.27;;;9.90;;
11008;SDS011;5557;51.670;7.788;2023-10-13T04:37:42;11.17;;;10.07;;
11008;SDS011;5557;51.670;7.788;2023-10-13T04:40:28;15.50;;;11.43;;
11008;SDS011;5557;51.670;7.788;2023-10-13T04:43:02;15.40;;;11.13;;
11008;SDS011;5557;51.670;7.788;2023-10-13T04:45:52;16.10;;;10.77;;
11008;SDS011;5557;51.670;7.788;2023-10-13T04:48:25;13.00;;;10.97;;
11008;SDS011;5557;51.670;7.788;2023-10-13T04:50:52;18.23;;;10.80;;
11008;SDS011;5557;51.670;7.788;2023-10-13T04:53:41;20.50;;;10.07;;
11008;SDS011;5557;51.670;7.788;2023-10-13T04:56:29;11.23;;;10.03;;
11008;SDS011;5557;51.670;7.788;2023-10-13T04:59:15;14.17;;;10.80;;
11008;SDS011;5557;51.670;7.788;2023-10-13T05:02:02;21.83;;;11.87;;
11008;SDS011;5557;51.670;7.788;2023-10-13T05:04:48;19.93;;;11.87;;
11008;SDS011;5557;51.670;7.788;2023-10-13T05:07:52;18.30;;;11.80;;
11008;SDS011;5557;51.670;7.788;2023-10-13T05:10:37;18.03;;;11.70;;
11008;SDS011;5557;51.670;7.788;2023-10-13T05:13:23;27.33;;;12.43;;
11008;SDS011;5557;51.670;7.788;2023-10-13T05:16:25;15.60;;;12.47;;
11008;SDS011;5557;51.670;7.788;2023-10-13T05:19:11;16.70;;;12.30;;
11008;SDS011;5557;51.670;7.788;2023-10-13T05:21:56;14.67;;;11.63;;
11008;SDS011;5557;51.670;7.788;2023-10-13T05:24:42;21.40;;;12.33;;
11008;SDS011;5557;51.670;7.788;2023-10-13T05:27:27;17.27;;;11.93;;
11008;SDS011;5557;51.670;7.788;2023-10-13T05:30:13;17.07;;;12.43;;
11008;SDS011;5557;51.670;7.788;2023-10-13T05:33:01;15.50;;;12.23;;
11008;SDS011;5557;51.670;7.788;2023-10-13T05:35:47;13.90;;;11.23;;
11008;SDS011;5557;51.670;7.788;2023-10-13T05:38:33;15.27;;;11.93;;
11008;SDS011;5557;51.670;7.788;2023-10-13T05:41:18;17.60;;;11.33;;
11008;SDS011;5557;51.670;7.788;2023-10-13T05:44:03;13.23;;;11.77;;
11008;SDS011;5557;51.670;7.788;2023-10-13T05:46:49;12.90;;;10.27;;
11008;SDS011;5557;51.670;7.788;2023-10-13T05:49:27;13.73;;;10.27;;
11008;SDS011;5557;51.670;7.788;2023-10-13T05:52:13;12.83;;;10.43;;
11008;SDS011;5557;51.670;7.788;2023-10-13T05:55:06;18.10;;;9.23;;
11008;SDS011;5557;51.670;7.788;2023-10-13T05:57:52;13.13;;;10.13;;
11008;SDS011;5557;51.670;7.788;2023-10-13T06:00:38;10.70;;;9.77;;
11008;SDS011;5557;51.670;7.788;2023-10-13T06:03:24;15.17;;;10.10;;
11008;SDS011;5557;51.670;7.788;2023-10-13T06:06:09;15.03;;;10.20;;
11008;SDS011;5557;51.670;7.788;2023-10-13T06:08:55;18.27;;;9.70;;
11008;SDS011;5557;51.670;7.788;2023-10-13T06:11:40;12.20;;;9.03;;
11008;SDS011;5557;51.670;7.788;2023-10-13T06:14:26;14.60;;;9.47;;
11008;SDS011;5557;51.670;7.788;2023-10-13T06:17:12;13.87;;;8.83;;
11008;SDS011;5557;51.670;7.788;2023-10-13T06:19:58;15.47;;;8.40;;
11008;SDS011;5557;51.670;7.788;2023-10-13T06:22:46;17.23;;;10.70;;
11008;SDS011;5557;51.670;7.788;2023-10-13T06:25:33;12.70;;;9.30;;
11008;SDS011;5557;51.670;7.788;2023-10-13T06:28:19;11.23;;;8.87;;
11008;SDS011;5557;51.670;7.788;2023-10-13T06:31:05;12.87;;;9.10;;
11008;SDS011;5557;51.670;7.788;2023-10-13T06:33:49;14.70;;;8.80;;
11008;SDS011;5557;51.670;7.788;2023-10-13T06:36:18;15.70;;;9.50;;
11008;SDS011;5557;51.670;7.788;2023-10-13T06:38:45;15.80;;;9.10;;
11008;SDS011;5557;51.670;7.788;2023-10-13T06:41:22;8.30;;;7.03;;
11008;SDS011;5557;51.670;7.788;2023-10-13T06:43:57;12.30;;;7.97;;
11008;SDS011;5557;51.670;7.788;2023-10-13T06:46:27;8.30;;;7.47;;
11008;SDS011;5557;51.670;7.788;2023-10-13T06:48:55;12.80;;;7.80;;
11008;SDS011;5557;51.670;7.788;2023-10-13T06:51:26;10.07;;;7.73;;
11008;SDS011;5557;51.670;7.788;2023-10-13T06:53:58;10.37;;;6.37;;
11008;SDS011;5557;51.670;7.788;2023-10-13T06:56:26;7.83;;;7.03;;
11008;SDS011;5557;51.670;7.788;2023-10-13T06:58:56;10.10;;;6.70;;
11008;SDS011;5557;51.670;7.788;2023-10-13T07:01:26;13.90;;;7.67;;
11008;SDS011;5557;51.670;7.788;2023-10-13T07:03:54;9.00;;;6.73;;
11008;SDS011;5557;51.670;7.788;2023-10-13T07:06:28;8.83;;;6.43;;
11008;SDS011;5557;51.670;7.788;2023-10-13T07:08:57;7.37;;;6.67;;
11008;SDS011;5557;51.670;7.788;2023-10-13T07:11:30;13.10;;;7.07;;
11008;SDS011;5557;51.670;7.788;2023-10-13T07:14:00;16.10;;;6.87;;
11008;SDS011;5557;51.670;7.788;2023-10-13T07:16:42;8.33;;;7.00;;
11008;SDS011;5557;51.670;7.788;2023-10-13T07:19:13;7.63;;;6.27;;
11008;SDS011;5557;51.670;7.788;2023-10-13T07:21:47;6.43;;;5.37;;
11008;SDS011;5557;51.670;7.788;2023-10-13T07:24:16;10.23;;;6.57;;
11008;SDS011;5557;51.670;7.788;2023-10-13T07:26:43;8.80;;;6.50;;
11008;SDS011;5557;51.670;7.788;2023-10-13T07:29:12;13.73;;;6.63;;
11008;SDS011;5557;51.670;7.788;2023-10-13T07:31:40;7.00;;;5.40;;
11008;SDS011;5557;51.670;7.788;2023-10-13T07:34:12;5.63;;;5.13;;
11008;SDS011;5557;51.670;7.788;2023-10-13T07:36:55;5.53;;;4.97;;
11008;SDS011;5557;51.670;7.788;2023-10-13T07:39:30;10.00;;;5.47;;
11008;SDS011;5557;51.670;7.788;2023-10-13T07:42:01;4.70;;;4.40;;
11008;SDS011;5557;51.670;7.788;2023-10-13T07:44:46;5.20;;;4.67;;
11008;SDS011;5557;51.670;7.788;2023-10-13T07:47:13;6.17;;;4.13;;
11008;SDS011;5557;51.670;7.788;2023-10-13T07:49:40;4.60;;;4.20;;
11008;SDS011;5557;51.670;7.788;2023-10-13T07:52:10;11.80;;;4.50;;
11008;SDS011;5557;51.670;7.788;2023-10-13T07:54:55;7.20;;;4.43;;
11008;SDS011;5557;51.670;7.788;2023-10-13T07:57:42;16.07;;;4.10;;
11008;SDS011;5557;51.670;7.788;2023-10-13T08:00:25;4.50;;;3.90;;
11008;SDS011;5557;51.670;7.788;2023-10-13T08:03:25;9.13;;;4.80;;
11008;SDS011;5557;51.670;7.788;2023-10-13T08:06:01;5.53;;;4.20;;
11008;SDS011;5557;51.670;7.788;2023-10-13T08:08:32;5.27;;;4.70;;
11008;SDS011;5557;51.670;7.788;2023-10-13T08:11:10;10.13;;;4.50;;
11008;SDS011;5557;51.670;7.788;2023-10-13T08:13:50;15.00;;;4.60;;
11008;SDS011;5557;51.670;7.788;2023-10-13T08:16:35;9.67;;;5.20;;
11008;SDS011;5557;51.670;7.788;2023-10-13T08:19:14;15.40;;;4.67;;
11008;SDS011;5557;51.670;7.788;2023-10-13T08:21:42;7.00;;;5.20;;
11008;SDS011;5557;51.670;7.788;2023-10-13T08:24:20;13.40;;;5.30;;
11008;SDS011;5557;51.670;7.788;2023-10-13T08:27:14;5.70;;;5.20;;
11008;SDS011;5557;51.670;7.788;2023-10-13T08:30:02;20.37;;;5.33;;
11008;SDS011;5557;51.670;7.788;2023-10-13T08:32:49;17.70;;;5.90;;
11008;SDS011;5557;51.670;7.788;2023-10-13T08:35:24;7.50;;;4.57;;
11008;SDS011;5557;51.670;7.788;2023-10-13T08:38:01;8.97;;;4.70;;
11008;SDS011;5557;51.670;7.788;2023-10-13T08:40:57;17.33;;;4.77;;
11008;SDS011;5557;51.670;7.788;2023-10-13T08:43:45;12.40;;;5.00;;
11008;SDS011;5557;51.670;7.788;2023-10-13T08:46:18;10.27;;;4.23;;
11008;SDS011;5557;51.670;7.788;2023-10-13T08:48:56;10.70;;;4.70;;
11008;SDS011;5557;51.670;7.788;2023-10-13T08:51:40;11.13;;;4.03;;
11008;SDS011;5557;51.670;7.788;2023-10-13T08:54:13;7.43;;;3.97;;
11008;SDS011;5557;51.670;7.788;2023-10-13T08:57:01;5.53;;;4.00;;
11008;SDS011;5557;51.670;7.788;2023-10-13T08:59:59;19.07;;;3.67;;
11008;SDS011;5557;51.670;7.788;2023-10-13T09:02:46;10.40;;;4.20;;
11008;SDS011;5557;51.670;7.788;2023-10-13T09:05:26;16.90;;;3.90;;
11008;SDS011;5557;51.670;7.788;2023-10-13T09:08:08;20.73;;;4.43;;
11008;SDS011;5557;51.670;7.788;2023-10-13T09:10:36;12.23;;;4.00;;
11008;SDS011;5557;51.670;7.788;2023-10-13T09:13:11;9.13;;;4.30;;
11008;SDS011;5557;51.670;7.788;2023-10-13T09:15:47;14.23;;;4.00;;
11008;SDS011;5557;51.670;7.788;2023-10-13T09:18:27;18.33;;;4.37;;
11008;SDS011;5557;51.670;7.788;2023-10-13T09:21:27;8.77;;;4.27;;
11008;SDS011;5557;51.670;7.788;2023-10-13T09:24:09;6.80;;;4.07;;
11008;SDS011;5557;51.670;7.788;2023-10-13T09:26:49;9.23;;;4.00;;
11008;SDS011;5557;51.670;7.788;2023-10-13T09:29:23;13.77;;;3.67;;
11008;SDS011;5557;51.670;7.788;2023-10-13T09:32:01;19.73;;;3.73;;
11008;SDS011;5557;51.670;7.788;2023-10-13T09:34:31;14.10;;;4.30;;
11008;SDS011;5557;51.670;7.788;2023-10-13T09:37:02;11.93;;;3.93;;
11008;SDS011;5557;51.670;7.788;2023-10-13T09:39:33;14.37;;;5.13;;
11008;SDS011;5557;51.670;7.788;2023-10-13T09:42:11;12.57;;;3.33;;
11008;SDS011;5557;51.670;7.788;2023-10-13T09:44:45;18.23;;;4.83;;
11008;SDS011;5557;51.670;7.788;2023-10-13T09:47:22;13.37;;;4.27;;
11008;SDS011;5557;51.670;7.788;2023-10-13T09:50:04;14.83;;;4.00;;
11008;SDS011;5557;51.670;7.788;2023-10-13T09:52:42;30.17;;;4.47;;
11008;SDS011;5557;51.670;7.788;2023-10-13T09:55:19;22.83;;;4.57;;
11008;SDS011;5557;51.670;7.788;2023-10-13T09:57:57;10.40;;;3.80;;
11008;SDS011;5557;51.670;7.788;2023-10-13T10:00:44;10.37;;;3.47;;
11008;SDS011;5557;51.670;7.788;2023-10-13T10:03:16;6.10;;;3.90;;
11008;SDS011;5557;51.670;7.788;2023-10-13T10:06:00;10.50;;;4.30;;
11008;SDS011;5557;51.670;7.788;2023-10-13T10:08:45;14.53;;;4.17;;
11008;SDS011;5557;51.670;7.788;2023-10-13T10:11:30;20.93;;;5.70;;
11008;SDS011;5557;51.670;7.788;2023-10-13T10:14:27;12.17;;;4.50;;
11008;SDS011;5557;51.670;7.788;2023-10-13T10:17:24;13.80;;;4.23;;
11008;SDS011;5557;51.670;7.788;2023-10-13T10:19:57;22.53;;;4.30;;
11008;SDS011;5557;51.670;7.788;2023-10-13T10:22:31;11.30;;;4.30;;
11008;SDS011;5557;51.670;7.788;2023-10-13T10:25:03;15.70;;;5.10;;
11008;SDS011;5557;51.670;7.788;2023-10-13T10:27:54;19.70;;;4.40;;
11008;SDS011;5557;51.670;7.788;2023-10-13T10:30:29;12.13;;;3.83;;
11008;SDS011;5557;51.670;7.788;2023-10-13T10:33:03;13.30;;;3.97;;
11008;SDS011;5557;51.670;7.788;2023-10-13T10:35:42;22.03;;;4.70;;
11008;SDS011;5557;51.670;7.788;2023-10-13T10:38:15;12.30;;;4.80;;
11008;SDS011;5557;51.670;7.788;2023-10-13T10:41:10;17.40;;;4.67;;
11008;SDS011;5557;51.670;7.788;2023-10-13T10:43:39;10.73;;;4.63;;
11008;SDS011;5557;51.670;7.788;2023-10-13T10:46:17;9.97;;;5.13;;
11008;SDS011;5557;51.670;7.788;2023-10-13T10:48:51;18.03;;;4.43;;
11008;SDS011;5557;51.670;7.788;2023-10-13T10:51:23;12.63;;;4.50;;
11008;SDS011;5557;51.670;7.788;2023-10-13T10:53:54;13.47;;;4.40;;
11008;SDS011;5557;51.670;7.788;2023-10-13T10:56:24;27.23;;;5.90;;
11008;SDS011;5557;51.670;7.788;2023-10-13T10:59:06;11.97;;;5.80;;
11008;SDS011;5557;51.670;7.788;2023-10-13T11:01:57;9.03;;;4.27;;
11008;SDS011;5557;51.670;7.788;2023-10-13T11:04:52;34.10;;;5.97;;
11008;SDS011;5557;51.670;7.788;2023-10-13T11:07:28;8.43;;;4.47;;
11008;SDS011;5557;51.670;7.788;2023-10-13T11:10:06;26.50;;;4.70;;
11008;SDS011;5557;51.670;7.788;2023-10-13T11:13:03;20.70;;;5.83;;
11008;SDS011;5557;51.670;7.788;2023-10-13T11:15:44;23.50;;;5.70;;
11008;SDS011;5557;51.670;7.788;2023-10-13T11:18:15;25.47;;;5.17;;
11008;SDS011;5557;51.670;7.788;2023-10-13T11:20:55;15.63;;;5.37;;
11008;SDS011;5557;51.670;7.788;2023-10-13T11:23:22;19.73;;;5.67;;
11008;SDS011;5557;51.670;7.788;2023-10-13T11:25:58;21.73;;;6.20;;
11008;SDS011;5557;51.670;7.788;2023-10-13T11:28:29;16.80;;;5.57;;
11008;SDS011;5557;51.670;7.788;2023-10-13T11:31:08;27.00;;;5.20;;
11008;SDS011;5557;51.670;7.788;2023-10-13T11:33:59;16.07;;;5.57;;
11008;SDS011;5557;51.670;7.788;2023-10-13T11:36:28;16.33;;;5.40;;
11008;SDS011;5557;51.670;7.788;2023-10-13T11:38:59;18.93;;;5.50;;
11008;SDS011;5557;51.670;7.788;2023-10-13T11:41:26;13.30;;;5.10;;
11008;SDS011;5557;51.670;7.788;2023-10-13T11:44:00;10.97;;;4.93;;
11008;SDS011;5557;51.670;7.788;2023-10-13T11:46:39;23.30;;;6.10;;
11008;SDS011;5557;51.670;7.788;2023-10-13T11:49:22;18.60;;;5.47;;
11008;SDS011;5557;51.670;7.788;2023-10-13T11:52:00;23.10;;;5.80;;
11008;SDS011;5557;51.670;7.788;2023-10-13T11:54:43;17.57;;;5.97;;
11008;SDS011;5557;51.670;7.788;2023-10-13T11:57:10;36.60;;;5.70;;
11008;SDS011;5557;51.670;7.788;2023-10-13T11:59:37;33.13;;;5.90;;
11008;SDS011;5557;51.670;7.788;2023-10-13T12:02:10;17.70;;;6.50;;
11008;SDS011;5557;51.670;7.788;2023-10-13T12:04:38;19.27;;;5.70;;
11008;SDS011;5557;51.670;7.788;2023-10-13T12:07:23;28.90;;;5.30;;
11008;SDS011;5557;51.670;7.788;2023-10-13T12:09:53;7.50;;;4.93;;
11008;SDS011;5557;51.670;7.788;2023-10-13T12:12:29;19.07;;;6.77;;
11008;SDS011;5557;51.670;7.788;2023-10-13T12:15:07;16.87;;;5.27;;
11008;SDS011;5557;51.670;7.788;2023-10-13T12:17:51;18.37;;;5.50;;
11008;SDS011;5557;51.670;7.788;2023-10-13T12:20:18;25.87;;;6.47;;
11008;SDS011;5557;51.670;7.788;2023-10-13T12:22:59;13.93;;;5.33;;
11008;SDS011;5557;51.670;7.788;2023-10-13T12:25:37;13.50;;;6.00;;
11008;SDS011;5557;51.670;7.788;2023-10-13T12:28:23;15.90;;;6.10;;
11008;SDS011;5557;51.670;7.788;2023-10-13T12:33:31;17.33;;;6.47;;
11008;SDS011;5557;51.670;7.788;2023-10-13T12:36:07;16.13;;;6.40;;
11008;SDS011;5557;51.670;7.788;2023-10-13T12:38:53;27.03;;;6.40;;
11008;SDS011;5557;51.670;7.788;2023-10-13T12:41:55;18.47;;;5.60;;
11008;SDS011;5557;51.670;7.788;2023-10-13T12:44:40;16.93;;;5.53;;
11008;SDS011;5557;51.670;7.788;2023-10-13T12:47:43;15.13;;;6.10;;
11008;SDS011;5557;51.670;7.788;2023-10-13T12:50:29;16.47;;;5.50;;
11008;SDS011;5557;51.670;7.788;2023-10-13T12:53:10;16.60;;;6.00;;
11008;SDS011;5557;51.670;7.788;2023-10-13T12:55:40;18.40;;;6.27;;
11008;SDS011;5557;51.670;7.788;2023-10-13T12:58:07;16.97;;;5.10;;
11008;SDS011;5557;51.670;7.788;2023-10-13T13:00:34;21.93;;;6.20;;
11008;SDS011;5557;51.670;7.788;2023-10-13T13:03:02;15.73;;;5.60;;
11008;SDS011;5557;51.670;7.788;2023-10-13T13:05:38;14.80;;;5.80;;
11008;SDS011;5557;51.670;7.788;2023-10-13T13:08:11;11.30;;;6.10;;
11008;SDS011;5557;51.670;7.788;2023-10-13T13:10:45;12.87;;;5.80;;
11008;SDS011;5557;51.670;7.788;2023-10-13T13:13:14;15.47;;;6.00;;
11008;SDS011;5557;51.670;7.788;2023-10-13T13:15:43;13.53;;;5.70;;
11008;SDS011;5557;51.670;7.788;2023-10-13T13:18:13;17.20;;;6.10;;
11008;SDS011;5557;51.670;7.788;2023-10-13T13:20:43;20.73;;;6.30;;
11008;SDS011;5557;51.670;7.788;2023-10-13T13:23:22;13.17;;;5.40;;
11008;SDS011;5557;51.670;7.788;2023-10-13T13:25:53;22.97;;;6.07;;
11008;SDS011;5557;51.670;7.788;2023-10-13T13:28:24;16.57;;;5.90;;
11008;SDS011;5557;51.670;7.788;2023-10-13T13:33:26;12.87;;;6.10;;
11008;SDS011;5557;51.670;7.788;2023-10-13T13:36:00;26.53;;;6.20;;
11008;SDS011;5557;51.670;7.788;2023-10-13T13:38:27;19.90;;;6.33;;
11008;SDS011;5557;51.670;7.788;2023-10-13T13:40:56;11.67;;;5.47;;
11008;SDS011;5557;51.670;7.788;2023-10-13T13:43:26;17.70;;;6.67;;
11008;SDS011;5557;51.670;7.788;2023-10-13T13:46:05;19.03;;;6.03;;
11008;SDS011;5557;51.670;7.788;2023-10-13T13:48:36;17.93;;;6.07;;
11008;SDS011;5557;51.670;7.788;2023-10-13T13:51:05;15.37;;;5.97;;
11008;SDS011;5557;51.670;7.788;2023-10-13T13:53:42;25.30;;;6.00;;
11008;SDS011;5557;51.670;7.788;2023-10-13T13:56:12;16.10;;;5.17;;
11008;SDS011;5557;51.670;7.788;2023-10-13T13:58:46;32.93;;;6.47;;
11008;SDS011;5557;51.670;7.788;2023-10-13T14:01:14;28.40;;;6.97;;
11008;SDS011;5557;51.670;7.788;2023-10-13T14:03:45;18.23;;;5.93;;
11008;SDS011;5557;51.670;7.788;2023-10-13T14:06:13;24.57;;;7.50;;
11008;SDS011;5557;51.670;7.788;2023-10-13T14:08:45;17.27;;;5.50;;
11008;SDS011;5557;51.670;7.788;2023-10-13T14:11:15;19.73;;;6.07;;
11008;SDS011;5557;51.670;7.788;2023-10-13T14:14:00;17.83;;;5.90;;
11008;SDS011;5557;51.670;7.788;2023-10-13T14:16:30;15.83;;;5.70;;
11008;SDS011;5557;51.670;7.788;2023-10-13T14:19:00;19.03;;;6.20;;
11008;SDS011;5557;51.670;7.788;2023-10-13T14:21:34;22.30;;;6.93;;
11008;SDS011;5557;51.670;7.788;2023-10-13T14:24:01;27.37;;;6.67;;
11008;SDS011;5557;51.670;7.788;2023-10-13T14:26:29;14.33;;;5.33;;
11008;SDS011;5557;51.670;7.788;2023-10-13T14:28:57;14.70;;;5.33;;
11008;SDS011;5557;51.670;7.788;2023-10-13T14:31:35;13.33;;;5.40;;
11008;SDS011;5557;51.670;7.788;2023-10-13T14:34:06;17.27;;;6.10;;
11008;SDS011;5557;51.670;7.788;2023-10-13T14:36:33;17.07;;;5.73;;
11008;SDS011;5557;51.670;7.788;2023-10-13T14:39:05;15.50;;;5.80;;
11008;SDS011;5557;51.670;7.788;2023-10-13T14:41:38;16.93;;;5.20;;
11008;SDS011;5557;51.670;7.788;2023-10-13T14:44:05;29.77;;;7.70;;
11008;SDS011;5557;51.670;7.788;2023-10-13T14:46:33;16.60;;;6.37;;
11008;SDS011;5557;51.670;7.788;2023-10-13T14:49:08;36.40;;;6.57;;
11008;SDS011;5557;51.670;7.788;2023-10-13T14:51:36;19.37;;;6.87;;
11008;SDS011;5557;51.670;7.788;2023-10-13T14:54:06;14.10;;;5.83;;
11008;SDS011;5557;51.670;7.788;2023-10-13T14:56:33;31.10;;;5.70;;
11008;SDS011;5557;51.670;7.788;2023-10-13T14:59:00;28.43;;;6.83;;
11008;SDS011;5557;51.670;7.788;2023-10-13T15:01:31;13.87;;;5.97;;
11008;SDS011;5557;51.670;7.788;2023-10-13T15:03:58;22.27;;;5.87;;
11008;SDS011;5557;51.670;7.788;2023-10-13T15:06:26;22.03;;;5.63;;
11008;SDS011;5557;51.670;7.788;2023-10-13T15:08:57;19.80;;;5.33;;
11008;SDS011;5557;51.670;7.788;2023-10-13T15:11:26;20.03;;;5.33;;
11008;SDS011;5557;51.670;7.788;2023-10-13T15:14:14;23.30;;;6.53;;
11008;SDS011;5557;51.670;7.788;2023-10-13T15:16:41;14.97;;;6.00;;
11008;SDS011;5557;51.670;7.788;2023-10-13T15:19:10;15.00;;;5.30;;
11008;SDS011;5557;51.670;7.788;2023-10-13T15:21:38;20.50;;;6.07;;
11008;SDS011;5557;51.670;7.788;2023-10-13T15:24:07;20.43;;;6.20;;
11008;SDS011;5557;51.670;7.788;2023-10-13T15:26:44;14.13;;;5.80;;
11008;SDS011;5557;51.670;7.788;2023-10-13T15:29:17;22.60;;;5.63;;
11008;SDS011;5557;51.670;7.788;2023-10-13T15:31:52;14.90;;;6.10;;
11008;SDS011;5557;51.670;7.788;2023-10-13T15:34:28;19.03;;;5.03;;
11008;SDS011;5557;51.670;7.788;2023-10-13T15:37:09;20.00;;;6.40;;
11008;SDS011;5557;51.670;7.788;2023-10-13T15:39:39;25.17;;;6.67;;
11008;SDS011;5557;51.670;7.788;2023-10-13T15:42:06;20.20;;;6.23;;
11008;SDS011;5557;51.670;7.788;2023-10-13T15:44:36;19.37;;;5.33;;